Springville, Tennessee
Current Conditions -  °F | °C
As of 4:15 PM on Sunday 25 Jan 2015 (Local Time) from KPHT Reporting Station
Overcast Overcast  
Wind Chill: 38°   Ceiling: 1700
Heat Index: 41°   Visibility: 10mi
Dew Point: 41°   Wind: 5mph
Humidity: 100%   Direction: 250°WSW
Pressure: 29.68"   Gusts: NA
Location:  36.25°N, 88.15°W
Report Text: KPHT 252215Z AUTO 25004KT 10SM OVC017 05/05 A2968 RMK
Loading
Personal Weather Stations






























Interactive Weather Map New forecast layout! Learn more

10-Day Weather Forecast

Advertisements
Track Severe Weather on mobile